createdAt,value
2018-05-29T00:00:03.309Z,61.91
2018-05-29T00:02:30.778Z,62.24
2018-05-29T00:04:58.213Z,63.33
2018-05-29T00:07:25.671Z,64.41
2018-05-29T00:09:53.113Z,65.30
2018-05-29T00:12:20.609Z,66.47
2018-05-29T00:14:48.078Z,66.92
2018-05-29T00:17:15.550Z,67.04
2018-05-29T00:19:43.032Z,67.16
2018-05-29T00:22:10.502Z,67.69
2018-05-29T00:24:38.302Z,67.47
2018-05-29T00:27:05.744Z,67.17
2018-05-29T00:29:33.213Z,65.58
2018-05-29T00:32:00.742Z,65.38
2018-05-29T00:34:28.244Z,64.41
2018-05-29T00:36:55.789Z,64.37
2018-05-29T00:39:23.299Z,64.39
2018-05-29T00:41:50.774Z,64.52
2018-05-29T00:44:18.213Z,64.78
2018-05-29T00:46:45.668Z,64.75
2018-05-29T00:49:13.119Z,64.96
2018-05-29T00:51:40.661Z,64.58
2018-05-29T00:54:08.155Z,65.05
2018-05-29T00:56:35.599Z,65.51
2018-05-29T00:59:03.055Z,65.51
2018-05-29T01:01:30.932Z,65.42
2018-05-29T01:03:58.505Z,66.00
2018-05-29T01:06:26.069Z,67.46
2018-05-29T01:08:53.563Z,66.91
2018-05-29T01:11:21.004Z,67.68
2018-05-29T01:13:48.446Z,67.40
2018-05-29T01:16:15.921Z,68.36
2018-05-29T01:18:43.400Z,68.21
2018-05-29T01:21:10.937Z,68.09
2018-05-29T01:23:38.379Z,67.56
2018-05-29T01:26:05.848Z,67.77
2018-05-29T01:28:33.311Z,68.11
2018-05-29T01:31:00.843Z,68.74
2018-05-29T01:33:28.290Z,68.16
2018-05-29T01:35:55.812Z,68.64
2018-05-29T01:38:23.314Z,68.74
2018-05-29T01:40:50.777Z,69.15
2018-05-29T01:43:18.222Z,68.56
2018-05-29T01:45:45.730Z,68.05
2018-05-29T01:48:13.189Z,68.36
2018-05-29T01:50:40.653Z,68.22
2018-05-29T01:53:08.112Z,67.55
2018-05-29T01:55:35.546Z,67.14
2018-05-29T01:58:02.986Z,67.80
2018-05-29T02:00:30.467Z,68.25
2018-05-29T02:02:57.969Z,69.06
2018-05-29T02:05:25.428Z,69.52
2018-05-29T02:07:52.873Z,69.64
2018-05-29T02:10:20.309Z,69.85
2018-05-29T02:12:47.885Z,70.22
2018-05-29T02:15:15.449Z,69.41
2018-05-29T02:17:42.962Z,69.05
2018-05-29T02:20:10.420Z,69.34
2018-05-29T02:22:37.864Z,69.02
2018-05-29T02:25:05.325Z,68.42
2018-05-29T02:27:32.794Z,68.67
2018-05-29T02:30:00.249Z,68.25
2018-05-29T02:32:27.762Z,68.30
2018-05-29T02:34:55.220Z,68.21
2018-05-29T02:37:22.668Z,67.96
2018-05-29T02:39:50.124Z,68.15
2018-05-29T02:42:17.705Z,67.90
2018-05-29T02:44:45.248Z,68.40
2018-05-29T02:47:12.688Z,68.29
2018-05-29T02:49:40.142Z,69.01
2018-05-29T02:52:07.578Z,68.79
2018-05-29T02:54:35.049Z,68.53
2018-05-29T02:57:02.518Z,69.39
2018-05-29T02:59:29.987Z,69.05
2018-05-29T03:01:57.433Z,69.44
2018-05-29T03:04:24.899Z,69.48
2018-05-29T03:06:52.349Z,69.56
2018-05-29T03:09:19.802Z,69.66
2018-05-29T03:11:47.269Z,69.53
2018-05-29T03:14:14.744Z,69.27
2018-05-29T03:16:42.248Z,69.16
2018-05-29T03:19:09.696Z,69.25
2018-05-29T03:21:37.172Z,69.31
2018-05-29T03:24:04.620Z,69.46
2018-05-29T03:26:32.181Z,69.12
2018-05-29T03:28:59.627Z,68.09
2018-05-29T03:31:27.141Z,67.57
2018-05-29T03:33:54.681Z,67.71
2018-05-29T03:36:22.212Z,68.30
2018-05-29T03:38:49.670Z,68.20
2018-05-29T03:41:17.119Z,68.90
2018-05-29T03:43:44.590Z,68.35
2018-05-29T03:46:12.115Z,69.36
2018-05-29T03:48:39.583Z,69.03
2018-05-29T03:51:07.022Z,69.26
2018-05-29T03:53:34.534Z,68.64
2018-05-29T03:56:01.975Z,68.59
2018-05-29T03:58:29.441Z,68.78
2018-05-29T04:00:56.929Z,67.84
2018-05-29T04:03:24.370Z,67.84
2018-05-29T04:05:51.861Z,67.96
2018-05-29T04:08:19.371Z,68.03
2018-05-29T04:10:46.842Z,67.58
2018-05-29T04:13:14.309Z,67.34
2018-05-29T04:15:41.784Z,67.26
2018-05-29T04:18:09.290Z,67.43
2018-05-29T04:20:36.731Z,68.27
2018-05-29T04:23:04.174Z,66.91
2018-05-29T04:25:31.620Z,67.09
2018-05-29T04:27:59.099Z,66.98
2018-05-29T04:30:26.591Z,65.74
2018-05-29T04:32:54.138Z,65.60
2018-05-29T04:35:21.605Z,63.28
2018-05-29T04:37:49.104Z,66.03
2018-05-29T04:40:16.620Z,67.25
2018-05-29T04:42:44.078Z,69.68
2018-05-29T04:45:11.634Z,67.00
2018-05-29T04:47:39.082Z,64.95
2018-05-29T04:50:06.643Z,64.90
2018-05-29T04:52:34.116Z,65.81
2018-05-29T04:55:01.569Z,65.31
2018-05-29T04:57:29.115Z,59.48
2018-05-29T04:59:56.599Z,62.42
2018-05-29T05:02:24.045Z,63.09
2018-05-29T05:04:51.490Z,62.95
2018-05-29T05:07:18.938Z,63.45
2018-05-29T05:09:46.395Z,61.25
2018-05-29T05:12:13.852Z,60.80
2018-05-29T05:14:41.329Z,62.31
2018-05-29T05:17:08.786Z,62.98
2018-05-29T05:19:36.219Z,63.21
2018-05-29T05:22:03.710Z,63.67
2018-05-29T05:24:32.087Z,67.71
2018-05-29T05:26:59.717Z,60.98
2018-05-29T05:29:27.170Z,61.85
2018-05-29T05:31:54.629Z,62.11
2018-05-29T05:34:22.093Z,59.12
2018-05-29T05:36:49.547Z,60.23
2018-05-29T05:39:17.019Z,58.46
2018-05-29T05:41:44.469Z,56.77
2018-05-29T05:44:11.933Z,55.41
2018-05-29T05:46:39.510Z,55.52
2018-05-29T05:49:07.153Z,54.88
2018-05-29T05:51:34.604Z,55.15
2018-05-29T05:54:02.066Z,54.85
2018-05-29T05:56:29.523Z,54.91
2018-05-29T05:58:57.121Z,55.48
2018-05-29T06:01:24.665Z,56.65
2018-05-29T06:03:52.203Z,55.80
2018-05-29T06:06:19.791Z,55.00
2018-05-29T06:08:47.232Z,56.28
2018-05-29T06:11:14.710Z,55.19
2018-05-29T06:13:42.176Z,54.76
2018-05-29T06:16:09.716Z,56.56
2018-05-29T06:18:37.163Z,56.63
2018-05-29T06:21:04.627Z,55.40
2018-05-29T06:23:32.102Z,55.28
2018-05-29T06:25:59.569Z,55.58
2018-05-29T06:28:27.008Z,55.27
2018-05-29T06:30:54.494Z,55.41
2018-05-29T06:33:21.969Z,55.18
2018-05-29T06:35:49.456Z,55.74
2018-05-29T06:38:16.990Z,57.04
2018-05-29T06:40:44.459Z,58.66
2018-05-29T06:43:11.926Z,58.12
2018-05-29T06:45:39.438Z,58.84
2018-05-29T06:48:06.942Z,58.31
2018-05-29T06:50:34.440Z,58.67
2018-05-29T06:53:01.910Z,58.74
2018-05-29T06:55:29.439Z,58.18
2018-05-29T06:57:56.906Z,58.30
2018-05-29T07:00:24.374Z,58.73
2018-05-29T07:02:51.865Z,58.34
2018-05-29T07:05:19.409Z,57.75
2018-05-29T07:07:46.903Z,59.06
2018-05-29T07:10:14.367Z,59.56
2018-05-29T07:12:41.839Z,59.57
2018-05-29T07:15:09.349Z,60.12
2018-05-29T07:17:36.843Z,59.14
2018-05-29T07:20:04.294Z,59.03
2018-05-29T07:22:31.769Z,58.07
2018-05-29T07:24:59.353Z,56.76
2018-05-29T07:27:26.837Z,56.86
2018-05-29T07:29:54.283Z,56.57
2018-05-29T07:32:21.863Z,54.44
2018-05-29T07:34:49.343Z,53.34
2018-05-29T07:37:16.788Z,52.49
2018-05-29T07:39:44.364Z,50.57
2018-05-29T07:42:11.816Z,51.48
2018-05-29T07:44:39.316Z,50.68
2018-05-29T07:47:06.790Z,51.90
2018-05-29T07:49:34.311Z,50.15
2018-05-29T07:52:01.909Z,49.24
2018-05-29T07:54:29.909Z,49.48
2018-05-29T07:56:57.476Z,49.19
2018-05-29T07:59:25.081Z,50.85
2018-05-29T08:01:52.608Z,49.58
2018-05-29T08:04:20.075Z,49.75
2018-05-29T08:06:47.569Z,48.94
2018-05-29T08:09:15.042Z,48.15
2018-05-29T08:11:42.509Z,47.06
2018-05-29T08:14:09.965Z,47.55
2018-05-29T08:16:37.471Z,47.80
2018-05-29T08:19:04.960Z,46.85
2018-05-29T08:21:32.425Z,46.94
2018-05-29T08:23:59.886Z,46.43
2018-05-29T08:26:27.505Z,46.87
2018-05-29T08:28:55.037Z,46.95
2018-05-29T08:31:22.556Z,47.26
2018-05-29T08:33:50.013Z,47.72
2018-05-29T08:36:17.510Z,47.83
2018-05-29T08:38:44.989Z,47.94
2018-05-29T08:41:12.557Z,49.66
2018-05-29T08:43:40.030Z,48.40
2018-05-29T08:46:07.522Z,48.25
2018-05-29T08:48:35.028Z,49.20
2018-05-29T08:51:02.523Z,48.02
2018-05-29T08:53:29.980Z,48.84
2018-05-29T08:55:57.523Z,47.37
2018-05-29T08:58:25.049Z,47.13
2018-05-29T09:00:52.617Z,48.12
2018-05-29T09:03:20.062Z,47.55
2018-05-29T09:05:47.619Z,48.91
2018-05-29T09:08:15.176Z,47.66
2018-05-29T09:10:43.697Z,46.86
2018-05-29T09:13:11.323Z,46.38
2018-05-29T09:15:38.808Z,46.34
2018-05-29T09:18:06.284Z,46.25
2018-05-29T09:20:33.734Z,47.19
2018-05-29T09:23:01.262Z,47.15
2018-05-29T09:25:28.714Z,47.28
2018-05-29T09:27:56.153Z,47.35
2018-05-29T09:30:23.676Z,46.06
2018-05-29T09:32:51.289Z,48.33
2018-05-29T09:35:18.816Z,46.08
2018-05-29T09:37:46.343Z,46.41
2018-05-29T09:40:13.881Z,45.50
2018-05-29T09:42:41.413Z,44.94
2018-05-29T09:45:08.886Z,46.25
2018-05-29T09:47:36.379Z,44.56
2018-05-29T09:50:03.884Z,44.50
2018-05-29T09:52:31.355Z,46.36
2018-05-29T09:54:58.893Z,46.51
2018-05-29T09:57:26.681Z,46.90
2018-05-29T09:59:54.140Z,47.03
2018-05-29T10:02:21.613Z,46.74
2018-05-29T10:04:49.080Z,47.62
2018-05-29T10:07:17.797Z,47.18
2018-05-29T10:09:47.240Z,46.04
2018-05-29T10:12:14.914Z,44.06
2018-05-29T10:14:42.455Z,45.19
2018-05-29T10:17:10.016Z,45.05
2018-05-29T10:19:37.713Z,45.39
2018-05-29T10:22:05.174Z,44.42
2018-05-29T10:24:32.681Z,43.36
2018-05-29T10:27:00.145Z,43.01
2018-05-29T10:29:27.609Z,42.49
2018-05-29T10:31:55.173Z,42.71
2018-05-29T10:34:23.201Z,42.06
2018-05-29T10:36:50.786Z,41.58
2018-05-29T10:39:18.275Z,41.66
2018-05-29T10:41:45.831Z,41.28
2018-05-29T10:44:13.385Z,39.17
2018-05-29T10:46:41.088Z,39.25
2018-05-29T10:49:08.564Z,38.01
2018-05-29T10:51:36.010Z,41.04
2018-05-29T10:54:03.473Z,39.47
2018-05-29T10:56:30.930Z,39.73
2018-05-29T10:58:58.403Z,38.94
2018-05-29T11:01:25.874Z,37.24
2018-05-29T11:03:53.354Z,36.23
2018-05-29T11:06:20.922Z,35.95
2018-05-29T11:08:48.449Z,37.29
2018-05-29T11:11:15.977Z,36.99
2018-05-29T11:13:43.472Z,36.99
2018-05-29T11:16:11.418Z,37.83
2018-05-29T11:18:38.996Z,39.18
2018-05-29T11:21:06.583Z,39.67
2018-05-29T11:23:34.021Z,38.40
2018-05-29T11:26:01.484Z,39.56
2018-05-29T11:28:28.946Z,38.07
2018-05-29T11:30:56.517Z,37.95
2018-05-29T11:33:23.967Z,40.03
2018-05-29T11:35:51.434Z,39.48
2018-05-29T11:38:18.913Z,38.55
2018-05-29T11:40:46.352Z,38.51
2018-05-29T11:43:13.818Z,37.16
2018-05-29T11:45:41.335Z,34.98
2018-05-29T11:48:08.872Z,33.68
2018-05-29T11:50:36.338Z,33.63
2018-05-29T11:53:03.814Z,33.76
2018-05-29T11:55:31.356Z,33.91
2018-05-29T11:57:58.864Z,35.12
2018-05-29T12:00:26.372Z,32.75
2018-05-29T12:02:54.977Z,32.48
2018-05-29T12:05:22.458Z,29.83
2018-05-29T12:07:49.969Z,26.51
2018-05-29T12:10:17.434Z,26.39
2018-05-29T12:12:44.906Z,26.51
2018-05-29T12:15:12.451Z,25.44
2018-05-29T12:17:39.901Z,26.31
2018-05-29T12:20:07.461Z,30.41
2018-05-29T12:22:34.915Z,28.60
2018-05-29T12:25:02.402Z,27.73
2018-05-29T12:27:29.909Z,26.75
2018-05-29T12:29:57.361Z,28.85
2018-05-29T12:32:25.022Z,30.63
2018-05-29T12:34:52.540Z,29.95
2018-05-29T12:37:20.056Z,28.86
2018-05-29T12:39:47.509Z,27.95
2018-05-29T12:42:15.010Z,30.73
2018-05-29T12:44:42.473Z,32.64
2018-05-29T12:47:10.000Z,34.50
2018-05-29T12:49:37.467Z,32.64
2018-05-29T12:52:04.947Z,28.24
2018-05-29T12:54:32.426Z,24.20
2018-05-29T12:56:59.933Z,23.21
2018-05-29T12:59:27.431Z,23.61
2018-05-29T13:01:54.967Z,24.51
2018-05-29T13:04:22.556Z,27.49
2018-05-29T13:06:50.054Z,30.69
2018-05-29T13:09:17.562Z,33.58
2018-05-29T13:11:45.041Z,34.36
2018-05-29T13:14:12.770Z,37.04
2018-05-29T13:16:40.266Z,37.92
2018-05-29T13:19:07.733Z,38.70
2018-05-29T13:21:35.190Z,40.40
2018-05-29T13:24:02.662Z,39.67
2018-05-29T13:26:30.158Z,40.46
2018-05-29T13:28:57.630Z,38.74
2018-05-29T13:31:25.080Z,37.29
2018-05-29T13:33:52.551Z,36.20
2018-05-29T13:36:20.097Z,35.44
2018-05-29T13:38:47.588Z,34.22
2018-05-29T13:41:15.104Z,36.80
2018-05-29T13:43:42.536Z,39.11
2018-05-29T13:46:10.017Z,41.85
2018-05-29T13:48:37.495Z,44.23
2018-05-29T13:51:04.969Z,43.76
2018-05-29T13:53:32.475Z,46.87
2018-05-29T13:56:04.745Z,43.94
2018-05-29T13:58:32.235Z,43.63
2018-05-29T14:00:59.673Z,43.78
2018-05-29T14:03:27.215Z,44.01
2018-05-29T14:05:54.665Z,44.52
2018-05-29T14:08:22.197Z,45.59
2018-05-29T14:10:49.672Z,47.07
2018-05-29T14:13:17.122Z,49.00
2018-05-29T14:15:44.573Z,49.41
2018-05-29T14:18:12.293Z,49.28
2018-05-29T14:20:39.804Z,50.56
2018-05-29T14:23:07.259Z,54.40
2018-05-29T14:25:34.870Z,50.88
2018-05-29T14:28:02.331Z,54.10
2018-05-29T14:30:29.825Z,53.35
2018-05-29T14:32:57.296Z,50.24
2018-05-29T14:35:24.793Z,53.76
2018-05-29T14:37:52.239Z,54.03
2018-05-29T14:40:19.792Z,53.95
2018-05-29T14:42:47.240Z,56.27
2018-05-29T14:45:14.712Z,54.69
2018-05-29T14:47:42.182Z,51.53
2018-05-29T14:50:09.618Z,51.94
2018-05-29T14:52:37.064Z,52.85
2018-05-29T14:55:04.571Z,52.81
2018-05-29T14:57:32.038Z,53.86
2018-05-29T14:59:59.813Z,52.51
2018-05-29T15:02:27.507Z,51.10
2018-05-29T15:04:55.000Z,51.43
2018-05-29T15:07:22.539Z,52.27
2018-05-29T15:09:49.987Z,51.31
2018-05-29T15:12:17.456Z,52.33
2018-05-29T15:14:44.911Z,55.75
2018-05-29T15:17:12.388Z,51.91
2018-05-29T15:19:39.930Z,54.12
2018-05-29T15:22:07.560Z,51.76
2018-05-29T15:24:35.059Z,51.32
2018-05-29T15:27:02.828Z,48.62
2018-05-29T15:29:30.269Z,48.32
2018-05-29T15:31:57.723Z,45.25
2018-05-29T15:34:25.213Z,45.70
2018-05-29T15:36:52.746Z,41.14
2018-05-29T15:39:20.172Z,36.42
2018-05-29T15:41:47.693Z,34.21
2018-05-29T15:44:15.182Z,30.73
2018-05-29T15:46:42.672Z,31.84
2018-05-29T15:49:10.132Z,33.45
2018-05-29T15:51:37.580Z,36.19
2018-05-29T15:54:05.039Z,41.18
2018-05-29T15:56:32.593Z,42.17
2018-05-29T15:59:00.039Z,44.25
2018-05-29T16:01:27.483Z,45.18
2018-05-29T16:03:54.994Z,46.29
2018-05-29T16:06:22.456Z,45.84
2018-05-29T16:08:50.105Z,42.60
2018-05-29T16:11:17.692Z,38.41
2018-05-29T16:13:45.106Z,36.20
2018-05-29T16:16:12.546Z,33.08
2018-05-29T16:18:40.002Z,30.43
2018-05-29T16:21:07.440Z,30.13
2018-05-29T16:23:34.959Z,27.18
2018-05-29T16:26:02.526Z,26.89
2018-05-29T16:28:29.994Z,25.53
2018-05-29T16:30:57.474Z,25.10
2018-05-29T16:33:24.968Z,23.19
2018-05-29T16:35:52.406Z,23.60
2018-05-29T16:38:19.871Z,22.28
2018-05-29T16:40:47.401Z,23.83
2018-05-29T16:43:14.879Z,23.32
2018-05-29T16:45:42.351Z,23.20
2018-05-29T16:48:09.794Z,23.85
2018-05-29T16:50:37.276Z,23.29
2018-05-29T16:53:04.746Z,22.86
2018-05-29T16:55:32.209Z,24.06
2018-05-29T16:57:59.755Z,23.99
2018-05-29T17:00:27.226Z,23.34
2018-05-29T17:02:54.701Z,22.88
2018-05-29T17:05:22.148Z,23.01
2018-05-29T17:07:49.623Z,24.16
2018-05-29T17:10:17.136Z,26.21
2018-05-29T17:12:44.618Z,25.37
2018-05-29T17:15:12.159Z,24.94
2018-05-29T17:17:39.600Z,24.93
2018-05-29T17:20:07.087Z,24.14
2018-05-29T17:22:34.628Z,25.90
2018-05-29T17:25:02.110Z,25.75
2018-05-29T17:27:29.556Z,26.45
2018-05-29T17:29:57.099Z,27.40
2018-05-29T17:32:24.559Z,26.87
2018-05-29T17:34:52.037Z,26.90
2018-05-29T17:37:19.490Z,25.85
2018-05-29T17:39:46.971Z,26.97
2018-05-29T17:42:14.483Z,27.52
2018-05-29T17:44:42.111Z,30.33
2018-05-29T17:47:09.608Z,29.95
2018-05-29T17:49:37.057Z,29.68
2018-05-29T17:52:04.699Z,30.58
2018-05-29T17:54:32.484Z,31.22
2018-05-29T17:57:00.114Z,32.12
2018-05-29T17:59:27.638Z,36.33
2018-05-29T18:01:55.610Z,38.55
2018-05-29T18:04:23.090Z,41.37
2018-05-29T18:06:50.543Z,45.14
2018-05-29T18:09:17.999Z,45.37
2018-05-29T18:11:45.452Z,46.99
2018-05-29T18:14:12.928Z,47.69
2018-05-29T18:16:40.429Z,47.92
2018-05-29T18:19:07.975Z,49.15
2018-05-29T18:21:35.431Z,49.14
2018-05-29T18:24:03.020Z,50.04
2018-05-29T18:26:31.600Z,49.60
2018-05-29T18:28:59.121Z,49.91
2018-05-29T18:31:26.588Z,52.53
2018-05-29T18:33:54.044Z,50.89
2018-05-29T18:36:21.616Z,51.98
2018-05-29T18:38:49.094Z,52.13
2018-05-29T18:41:16.716Z,53.28
2018-05-29T18:43:44.180Z,53.78
2018-05-29T18:46:11.663Z,54.15
2018-05-29T18:48:39.137Z,54.34
2018-05-29T18:51:06.843Z,54.98
2018-05-29T18:53:34.295Z,55.61
2018-05-29T18:56:02.161Z,56.87
2018-05-29T18:58:29.669Z,56.60
2018-05-29T19:00:57.215Z,57.62
2018-05-29T19:03:24.738Z,57.69
2018-05-29T19:05:52.174Z,59.45
2018-05-29T19:08:19.796Z,59.90
2018-05-29T19:10:47.279Z,61.18
2018-05-29T19:13:14.824Z,61.06
2018-05-29T19:15:42.304Z,62.12
2018-05-29T19:18:09.753Z,62.50
2018-05-29T19:20:37.262Z,63.03
2018-05-29T19:23:05.038Z,63.42
2018-05-29T19:25:32.519Z,63.59
2018-05-29T19:27:59.975Z,64.04
2018-05-29T19:30:27.446Z,63.22
2018-05-29T19:32:54.904Z,64.13
2018-05-29T19:35:22.458Z,64.16
2018-05-29T19:37:49.913Z,64.13
2018-05-29T19:40:17.391Z,64.88
2018-05-29T19:42:44.850Z,65.77
2018-05-29T19:45:12.305Z,65.67
2018-05-29T19:47:39.787Z,66.51
2018-05-29T19:50:07.270Z,66.92
2018-05-29T19:52:34.719Z,66.95
2018-05-29T19:55:02.192Z,67.36
2018-05-29T19:57:29.798Z,67.60
2018-05-29T19:59:57.353Z,67.48
2018-05-29T20:02:24.821Z,67.82
2018-05-29T20:04:52.360Z,68.45
2018-05-29T20:07:19.880Z,68.61
2018-05-29T20:09:47.416Z,68.97
2018-05-29T20:12:14.912Z,69.06
2018-05-29T20:14:42.358Z,69.62
2018-05-29T20:17:09.820Z,69.81
2018-05-29T20:19:38.230Z,69.83
2018-05-29T20:22:05.755Z,70.11
2018-05-29T20:24:33.905Z,70.27
2018-05-29T20:27:01.569Z,70.68
2018-05-29T20:29:29.024Z,70.85
2018-05-29T20:31:56.474Z,71.18
2018-05-29T20:34:23.964Z,71.71
2018-05-29T20:36:51.521Z,71.81
2018-05-29T20:39:18.937Z,71.43
2018-05-29T20:41:46.420Z,71.67
2018-05-29T20:44:14.067Z,71.50
2018-05-29T20:46:41.593Z,71.74
2018-05-29T20:49:09.152Z,72.12
2018-05-29T20:51:36.674Z,71.85
2018-05-29T20:54:04.099Z,71.85
2018-05-29T20:56:31.553Z,71.79
2018-05-29T20:58:59.008Z,72.03
2018-05-29T21:01:26.496Z,72.32
2018-05-29T21:03:53.958Z,71.98
2018-05-29T21:06:21.435Z,72.52
2018-05-29T21:08:48.965Z,72.66
2018-05-29T21:11:16.469Z,72.38
2018-05-29T21:13:43.927Z,73.27
2018-05-29T21:16:11.462Z,73.71
2018-05-29T21:18:38.920Z,73.60
2018-05-29T21:21:06.449Z,73.92
2018-05-29T21:23:33.914Z,74.67
2018-05-29T21:26:01.354Z,74.61
2018-05-29T21:28:28.820Z,74.89
2018-05-29T21:30:56.285Z,74.67
2018-05-29T21:33:23.744Z,74.80
2018-05-29T21:35:51.192Z,75.49
2018-05-29T21:38:18.637Z,75.83
2018-05-29T21:40:46.146Z,76.30
2018-05-29T21:43:13.698Z,76.32
2018-05-29T21:45:41.206Z,76.34
2018-05-29T21:48:08.656Z,76.70
2018-05-29T21:50:36.175Z,78.39
2018-05-29T21:53:03.652Z,76.35
2018-05-29T21:55:31.213Z,76.71
2018-05-29T21:57:58.740Z,73.59
2018-05-29T22:00:26.301Z,74.14
2018-05-29T22:02:53.747Z,74.43
2018-05-29T22:05:21.207Z,75.04
2018-05-29T22:07:48.671Z,73.92
2018-05-29T22:10:16.141Z,74.02
2018-05-29T22:12:43.691Z,74.74
2018-05-29T22:15:11.221Z,76.07
2018-05-29T22:17:38.693Z,76.55
2018-05-29T22:20:06.147Z,77.24
2018-05-29T22:22:33.619Z,77.43
2018-05-29T22:25:01.327Z,78.00
2018-05-29T22:27:28.786Z,78.00
2018-05-29T22:29:56.264Z,78.40
2018-05-29T22:32:23.736Z,78.64
2018-05-29T22:34:51.196Z,78.29
2018-05-29T22:37:18.661Z,78.32
2018-05-29T22:39:46.103Z,78.38
2018-05-29T22:42:13.560Z,78.57
2018-05-29T22:44:41.014Z,78.70
2018-05-29T22:47:08.501Z,79.38
2018-05-29T22:49:35.996Z,79.10
2018-05-29T22:52:03.494Z,78.95
2018-05-29T22:54:30.985Z,78.77
2018-05-29T22:57:00.690Z,79.22
2018-05-29T22:59:28.443Z,79.13
2018-05-29T23:01:56.245Z,79.45
2018-05-29T23:04:23.763Z,79.52
2018-05-29T23:06:51.244Z,79.66
2018-05-29T23:09:18.705Z,79.62
2018-05-29T23:11:46.157Z,79.84
2018-05-29T23:14:13.619Z,80.10
2018-05-29T23:16:41.137Z,79.96
2018-05-29T23:19:08.578Z,79.97
2018-05-29T23:21:36.046Z,80.22
2018-05-29T23:24:03.492Z,80.51
2018-05-29T23:26:30.967Z,80.45
2018-05-29T23:28:58.432Z,80.67
2018-05-29T23:31:25.901Z,81.36
2018-05-29T23:33:53.355Z,81.34
2018-05-29T23:36:20.807Z,81.31
2018-05-29T23:38:48.255Z,81.21
2018-05-29T23:41:15.710Z,81.92
2018-05-29T23:43:43.258Z,81.70
2018-05-29T23:46:10.715Z,81.39
2018-05-29T23:48:38.164Z,81.82
2018-05-29T23:51:05.639Z,81.30
2018-05-29T23:53:33.088Z,81.98
2018-05-29T23:56:00.539Z,81.81
2018-05-29T23:58:28.020Z,81.99
